Terminal Aerodrome Forecast
Issued by NWS Lake Charles, LA

Home | Current Version | Previous Version | Text Only | Print | Product List | Glossary On
Versions: 1 2 3 4 5 6 7 8 9 10 11 12 13 14 15 16 17 18 19 20 21 22 23 24 25 26 27 28 29 30 31 32 33 34 35 36
039
FTUS44 KLCH 191923 AAA
TAFARA
TAF AMD
KARA 191923Z 1919/2018 15007KT P6SM VCSH SCT027
      TEMPO 1919/1922 BKN027
     FM200200 VRB05KT P6SM BKN015
     FM201500 12006KT P6SM OVC015=

USA.gov is the U.S. government's official web portal to all federal, state and local government web resources and services.